createdAt,value
2019-01-30T00:00:41.763Z,13.95
2019-01-30T00:03:12.812Z,12.30
2019-01-30T00:05:43.852Z,11.78
2019-01-30T00:08:13.843Z,13.43
2019-01-30T00:10:45.289Z,12.98
2019-01-30T00:13:15.282Z,12.75
2019-01-30T00:15:56.236Z,13.08
2019-01-30T00:18:18.401Z,13.10
2019-01-30T00:20:48.402Z,14.70
2019-01-30T00:23:20.211Z,13.62
2019-01-30T00:25:50.210Z,14.10
2019-01-30T00:28:21.331Z,13.83
2019-01-30T00:30:51.284Z,13.58
2019-01-30T00:33:21.247Z,15.23
2019-01-30T00:35:52.365Z,13.15
2019-01-30T00:38:23.482Z,14.40
2019-01-30T00:40:54.522Z,16.82
2019-01-30T00:43:24.484Z,14.30
2019-01-30T00:45:55.612Z,13.70
2019-01-30T00:48:25.522Z,12.55
2019-01-30T00:50:58.762Z,13.53
2019-01-30T00:53:32.122Z,13.93
2019-01-30T00:56:02.122Z,17.02
2019-01-30T00:58:33.010Z,15.45
2019-01-30T01:01:04.165Z,14.50
2019-01-30T01:03:35.368Z,14.00
2019-01-30T01:06:06.453Z,13.98
2019-01-30T01:08:37.644Z,13.15
2019-01-30T01:11:08.784Z,13.98
2019-01-30T01:13:40.004Z,14.13
2019-01-30T01:16:11.054Z,15.98
2019-01-30T01:18:42.205Z,15.10
2019-01-30T01:21:13.244Z,17.15
2019-01-30T01:23:44.290Z,14.23
2019-01-30T01:26:15.370Z,14.78
2019-01-30T01:28:46.493Z,14.25
2019-01-30T01:31:17.210Z,13.30
2019-01-30T01:33:48.284Z,14.95
2019-01-30T01:36:19.522Z,13.88
2019-01-30T01:38:52.848Z,14.68
2019-01-30T01:41:23.850Z,15.55
2019-01-30T01:43:53.202Z,14.40
2019-01-30T01:46:24.210Z,17.02
2019-01-30T01:48:55.330Z,15.15
2019-01-30T01:51:26.442Z,16.75
2019-01-30T01:53:57.574Z,14.10
2019-01-30T01:56:28.610Z,15.63
2019-01-30T01:59:00.323Z,16.60
2019-01-30T02:01:31.401Z,17.23
2019-01-30T02:04:02.411Z,17.55
2019-01-30T02:06:32.963Z,16.37
2019-01-30T02:09:03.933Z,15.65
2019-01-30T02:11:34.963Z,15.80
2019-01-30T02:14:06.042Z,16.32
2019-01-30T02:16:37.090Z,15.00
2019-01-30T02:19:08.130Z,15.72
2019-01-30T02:21:39.171Z,15.83
2019-01-30T02:24:10.252Z,14.18
2019-01-30T02:26:41.332Z,13.65
2019-01-30T02:29:11.283Z,13.15
2019-01-30T02:31:41.977Z,16.12
2019-01-30T02:34:13.243Z,17.67
2019-01-30T02:36:59.535Z,16.00
2019-01-30T02:39:29.525Z,14.53
2019-01-30T02:42:00.642Z,15.05
2019-01-30T02:44:31.690Z,14.05
2019-01-30T02:47:02.811Z,14.70
2019-01-30T02:49:32.816Z,14.98
2019-01-30T02:52:03.931Z,14.95
2019-01-30T02:54:35.082Z,14.55
2019-01-30T02:57:08.445Z,16.57
2019-01-30T02:59:39.562Z,17.10
2019-01-30T03:02:14.803Z,16.50
2019-01-30T03:04:45.771Z,16.32
2019-01-30T03:07:16.883Z,15.63
2019-01-30T03:09:47.930Z,16.57
2019-01-30T03:12:19.251Z,17.20
2019-01-30T03:14:50.370Z,13.95
2019-01-30T03:17:19.714Z,14.95
2019-01-30T03:19:49.650Z,14.03
2019-01-30T03:22:20.803Z,14.68
2019-01-30T03:24:52.479Z,13.62
2019-01-30T03:27:23.530Z,12.47
2019-01-30T03:29:53.854Z,11.45
2019-01-30T03:32:27.256Z,12.47
2019-01-30T03:34:59.762Z,12.33
2019-01-30T03:37:30.750Z,12.50
2019-01-30T03:40:00.681Z,12.90
2019-01-30T03:42:31.696Z,12.60
2019-01-30T03:45:02.751Z,14.13
2019-01-30T03:47:34.371Z,13.00
2019-01-30T03:50:05.442Z,12.43
2019-01-30T03:52:35.362Z,13.18
2019-01-30T03:55:06.764Z,12.00
2019-01-30T03:57:37.850Z,12.00
2019-01-30T04:00:12.091Z,13.55
2019-01-30T04:02:43.163Z,12.40
2019-01-30T04:05:14.282Z,14.00
2019-01-30T04:07:44.283Z,13.55
2019-01-30T04:10:17.884Z,13.03
2019-01-30T04:12:51.173Z,11.90
2019-01-30T04:15:21.162Z,13.98
2019-01-30T04:17:51.164Z,12.80
2019-01-30T04:20:21.733Z,13.43
2019-01-30T04:22:52.810Z,13.08
2019-01-30T04:25:24.009Z,12.58
2019-01-30T04:27:55.050Z,15.48
2019-01-30T04:30:26.484Z,15.20
2019-01-30T04:32:57.523Z,14.65
2019-01-30T04:35:28.651Z,15.03
2019-01-30T04:37:58.650Z,17.32
2019-01-30T04:40:29.723Z,15.70
2019-01-30T04:43:00.770Z,19.12
2019-01-30T04:45:30.762Z,16.00
2019-01-30T04:48:01.691Z,14.73
2019-01-30T04:50:33.210Z,16.23
2019-01-30T04:53:04.210Z,12.23
2019-01-30T04:55:34.201Z,12.40
2019-01-30T04:58:04.122Z,11.28
2019-01-30T05:00:35.163Z,14.50
2019-01-30T05:03:05.051Z,13.95
2019-01-30T05:05:36.052Z,13.88
2019-01-30T05:08:07.122Z,16.20
2019-01-30T05:10:36.923Z,13.98
2019-01-30T05:13:08.053Z,16.52
2019-01-30T05:15:39.130Z,16.30
2019-01-30T05:18:10.211Z,17.57
2019-01-30T05:20:41.291Z,16.70
2019-01-30T05:23:12.900Z,15.65
2019-01-30T05:25:44.010Z,14.40
2019-01-30T05:28:15.195Z,15.98
2019-01-30T05:30:46.262Z,15.10
2019-01-30T05:33:16.251Z,17.65
2019-01-30T05:35:47.291Z,14.85
2019-01-30T05:38:16.633Z,17.42
2019-01-30T05:40:47.645Z,15.60
2019-01-30T05:43:21.124Z,14.20
2019-01-30T05:45:52.130Z,16.12
2019-01-30T05:48:23.203Z,15.35
2019-01-30T05:50:53.203Z,16.42
2019-01-30T05:53:22.475Z,19.87
2019-01-30T05:55:53.524Z,16.62
2019-01-30T05:58:24.611Z,16.07
2019-01-30T06:00:57.933Z,19.00
2019-01-30T06:03:27.923Z,18.65
2019-01-30T06:05:58.923Z,18.00
2019-01-30T06:08:28.722Z,14.18
2019-01-30T06:10:59.843Z,15.53
2019-01-30T06:13:31.523Z,18.55
2019-01-30T06:16:02.682Z,16.37
2019-01-30T06:18:32.682Z,16.42
2019-01-30T06:21:03.923Z,19.17
2019-01-30T06:23:35.107Z,15.05
2019-01-30T06:26:06.217Z,18.05
2019-01-30T06:28:36.137Z,14.83
2019-01-30T06:31:07.330Z,15.10
2019-01-30T06:33:37.304Z,16.10
2019-01-30T06:36:11.207Z,16.55
2019-01-30T06:38:42.285Z,15.05
2019-01-30T06:41:13.883Z,19.02
2019-01-30T06:43:44.483Z,19.20
2019-01-30T06:46:15.683Z,20.43
2019-01-30T06:48:45.682Z,17.62
2019-01-30T06:51:15.562Z,19.32
2019-01-30T06:53:46.691Z,21.35
2019-01-30T06:56:17.764Z,23.07
2019-01-30T06:58:48.845Z,21.12
2019-01-30T07:01:19.962Z,22.75
2019-01-30T07:03:51.051Z,26.45
2019-01-30T07:06:22.083Z,22.73
2019-01-30T07:08:54.522Z,21.57
2019-01-30T07:11:25.610Z,21.87
2019-01-30T07:13:58.251Z,19.82
2019-01-30T07:16:30.535Z,22.52
2019-01-30T07:25:12.451Z,21.37
2019-01-30T07:27:43.809Z,20.43
2019-01-30T07:30:18.001Z,21.37
2019-01-30T07:32:49.049Z,20.00
2019-01-30T07:35:20.301Z,21.10
2019-01-30T07:37:51.923Z,24.18
2019-01-30T07:40:22.893Z,24.90
2019-01-30T07:42:53.882Z,26.80
2019-01-30T07:45:26.121Z,29.05
2019-01-30T07:47:57.164Z,29.65
2019-01-30T07:50:28.203Z,31.85
2019-01-30T07:52:59.282Z,35.25
2019-01-30T07:55:30.213Z,37.88
2019-01-30T07:58:01.283Z,30.35
2019-01-30T08:00:33.170Z,32.00
2019-01-30T08:03:04.195Z,33.90
2019-01-30T08:05:36.360Z,29.18
2019-01-30T08:08:06.366Z,30.52
2019-01-30T08:10:37.440Z,33.73
2019-01-30T08:13:08.362Z,32.45
2019-01-30T08:15:39.342Z,33.60
2019-01-30T08:18:09.155Z,39.05
2019-01-30T08:20:40.184Z,34.15
2019-01-30T08:23:10.392Z,39.05
2019-01-30T08:25:41.874Z,31.40
2019-01-30T08:28:15.626Z,34.58
2019-01-30T08:30:45.910Z,39.00
2019-01-30T08:33:16.497Z,32.05
2019-01-30T08:35:46.390Z,32.67
2019-01-30T08:38:17.289Z,32.83
2019-01-30T08:40:48.275Z,39.10
2019-01-30T08:43:19.878Z,36.15
2019-01-30T08:45:50.883Z,44.90
2019-01-30T08:48:21.921Z,42.10
2019-01-30T08:50:52.922Z,40.12
2019-01-30T08:53:23.923Z,33.42
2019-01-30T08:55:54.994Z,36.90
2019-01-30T08:58:25.964Z,40.38
2019-01-30T09:00:56.903Z,37.25
2019-01-30T09:03:27.922Z,43.28
2019-01-30T09:05:57.765Z,38.53
2019-01-30T09:08:27.638Z,49.88
2019-01-30T09:10:58.600Z,41.35
2019-01-30T09:13:29.642Z,44.60
2019-01-30T09:16:00.684Z,47.62
2019-01-30T09:18:33.087Z,44.42
2019-01-30T09:21:04.047Z,40.50
2019-01-30T09:23:35.040Z,44.08
2019-01-30T09:26:06.035Z,43.65
2019-01-30T09:28:37.043Z,40.92
2019-01-30T09:31:08.726Z,47.50
2019-01-30T09:33:39.751Z,45.80
2019-01-30T09:36:09.742Z,46.23
2019-01-30T09:38:40.722Z,47.67
2019-01-30T09:41:10.527Z,42.23
2019-01-30T09:43:40.391Z,35.43
2019-01-30T09:46:11.483Z,39.40
2019-01-30T09:48:42.522Z,26.17
2019-01-30T09:51:13.523Z,29.95
2019-01-30T09:53:44.535Z,41.68
2019-01-30T09:56:22.223Z,34.85
2019-01-30T09:58:53.280Z,28.30
2019-01-30T10:01:24.241Z,29.82
2019-01-30T10:03:55.239Z,28.65
2019-01-30T10:06:26.171Z,31.90
2019-01-30T10:08:58.042Z,35.75
2019-01-30T10:11:29.113Z,15.75
2019-01-30T10:13:58.964Z,32.48
2019-01-30T10:16:29.959Z,33.05
2019-01-30T10:19:00.971Z,21.57
2019-01-30T10:21:33.318Z,25.75
2019-01-30T10:24:04.302Z,36.20
2019-01-30T10:26:35.239Z,20.90
2019-01-30T10:29:06.216Z,22.60
2019-01-30T10:31:37.191Z,29.15
2019-01-30T10:34:08.892Z,36.23
2019-01-30T10:36:39.880Z,35.85
2019-01-30T10:39:11.752Z,13.48
2019-01-30T10:41:42.726Z,28.32
2019-01-30T10:44:13.754Z,23.57
2019-01-30T10:46:44.623Z,20.77
2019-01-30T10:49:14.471Z,34.78
2019-01-30T10:51:45.470Z,28.83
2019-01-30T10:54:16.492Z,26.87
2019-01-30T10:56:47.511Z,12.70
2019-01-30T10:59:18.470Z,22.98
2019-01-30T11:01:50.072Z,32.00
2019-01-30T11:04:21.681Z,41.15
2019-01-30T11:06:52.621Z,25.55
2019-01-30T11:09:23.603Z,24.60
2019-01-30T11:11:55.191Z,32.13
2019-01-30T11:14:26.235Z,28.32
2019-01-30T11:16:56.152Z,26.57
2019-01-30T11:19:27.143Z,30.90
2019-01-30T11:21:58.111Z,33.67
2019-01-30T11:24:29.118Z,34.70
2019-01-30T11:27:00.071Z,25.40
2019-01-30T11:29:32.546Z,28.95
2019-01-30T11:32:03.550Z,33.08
2019-01-30T11:34:34.438Z,30.70
2019-01-30T11:37:06.259Z,30.82
2019-01-30T11:39:37.311Z,30.43
2019-01-30T11:42:08.380Z,30.40
2019-01-30T11:44:39.518Z,22.80
2019-01-30T11:47:10.557Z,31.45
2019-01-30T11:49:41.606Z,32.08
2019-01-30T11:52:12.622Z,13.28
2019-01-30T11:54:43.691Z,29.12
2019-01-30T11:57:14.707Z,25.75
2019-01-30T11:59:44.656Z,33.60
2019-01-30T12:02:15.678Z,36.83
2019-01-30T12:04:46.630Z,32.05
2019-01-30T12:07:19.039Z,44.90
2019-01-30T12:09:50.158Z,43.92
2019-01-30T12:12:21.158Z,37.70
2019-01-30T12:14:52.162Z,30.50
2019-01-30T12:17:23.879Z,30.85
2019-01-30T12:19:54.819Z,32.35
2019-01-30T12:22:25.757Z,38.55
2019-01-30T12:24:56.711Z,35.55
2019-01-30T12:27:27.674Z,38.83
2019-01-30T12:29:57.517Z,41.88
2019-01-30T12:32:28.499Z,46.77
2019-01-30T12:34:58.491Z,51.55
2019-01-30T12:37:29.383Z,46.90
2019-01-30T12:40:00.363Z,41.33
2019-01-30T12:42:31.343Z,42.53
2019-01-30T12:45:02.330Z,45.45
2019-01-30T12:47:33.261Z,47.83
2019-01-30T12:50:03.179Z,51.63
2019-01-30T12:52:40.910Z,43.38
2019-01-30T12:55:13.703Z,46.55
2019-01-30T12:57:44.705Z,38.98
2019-01-30T13:00:21.161Z,39.78
2019-01-30T13:02:52.881Z,43.85
2019-01-30T13:05:25.008Z,44.75
2019-01-30T13:07:56.110Z,46.08
2019-01-30T13:10:27.161Z,26.07
2019-01-30T13:12:58.343Z,27.82
2019-01-30T13:15:31.462Z,40.98
2019-01-30T13:18:01.543Z,32.95
2019-01-30T13:20:32.585Z,19.75
2019-01-30T13:23:02.511Z,29.20
2019-01-30T13:25:34.310Z,12.25
2019-01-30T13:28:05.422Z,30.75
2019-01-30T13:30:38.223Z,29.92
2019-01-30T13:33:09.943Z,38.05
2019-01-30T13:35:40.970Z,37.65
2019-01-30T13:38:12.102Z,33.78
2019-01-30T13:40:43.150Z,34.75
2019-01-30T13:43:14.302Z,40.50
2019-01-30T13:45:45.384Z,40.35
2019-01-30T13:48:18.885Z,48.08
2019-01-30T13:50:58.673Z,34.50
2019-01-30T13:53:30.881Z,43.65
2019-01-30T13:56:01.952Z,30.48
2019-01-30T13:58:33.030Z,36.98
2019-01-30T14:01:03.024Z,15.98
2019-01-30T14:03:32.942Z,37.38
2019-01-30T14:06:04.010Z,37.85
2019-01-30T14:08:35.121Z,40.78
2019-01-30T14:11:06.279Z,37.38
2019-01-30T14:13:37.316Z,34.25
2019-01-30T14:16:08.389Z,30.43
2019-01-30T14:18:38.626Z,42.95
2019-01-30T14:21:09.671Z,35.73
2019-01-30T14:23:39.732Z,44.10
2019-01-30T14:26:10.785Z,37.90
2019-01-30T14:28:41.880Z,28.62
2019-01-30T14:31:13.126Z,50.25
2019-01-30T14:33:44.934Z,37.88
2019-01-30T14:36:17.582Z,31.50
2019-01-30T14:38:48.793Z,41.90
2019-01-30T14:41:19.897Z,42.13
2019-01-30T14:43:49.907Z,19.00
2019-01-30T14:46:19.838Z,24.80
2019-01-30T14:48:50.951Z,11.03
2019-01-30T14:51:22.040Z,31.40
2019-01-30T14:53:54.824Z,35.65
2019-01-30T14:56:25.834Z,35.78
2019-01-30T14:58:56.997Z,14.85
2019-01-30T15:01:28.269Z,32.55
2019-01-30T15:04:01.030Z,16.35
2019-01-30T15:06:32.805Z,30.48
2019-01-30T15:09:06.658Z,16.00
2019-01-30T15:11:39.651Z,22.55
2019-01-30T15:14:10.742Z,31.07
2019-01-30T15:16:41.836Z,24.35
2019-01-30T15:19:12.916Z,39.85
2019-01-30T15:21:44.024Z,20.80
2019-01-30T15:24:15.036Z,27.35
2019-01-30T15:26:46.177Z,43.95
2019-01-30T15:29:17.232Z,51.60
2019-01-30T15:31:48.327Z,49.27
2019-01-30T15:34:18.344Z,42.25
2019-01-30T15:36:48.455Z,31.55
2019-01-30T15:39:19.594Z,32.20
2019-01-30T15:41:51.414Z,30.60
2019-01-30T15:44:21.352Z,40.85
2019-01-30T15:46:52.391Z,36.63
2019-01-30T15:49:23.583Z,40.40
2019-01-30T15:51:53.537Z,28.67
2019-01-30T15:54:25.346Z,30.70
2019-01-30T15:57:16.469Z,22.00
2019-01-30T15:59:49.870Z,22.13
2019-01-30T16:02:23.424Z,24.07
2019-01-30T16:04:54.667Z,22.45
2019-01-30T16:07:30.014Z,35.88
2019-01-30T16:11:01.227Z,35.68
2019-01-30T16:13:32.867Z,18.70
2019-01-30T16:16:05.583Z,11.08
2019-01-30T16:18:36.865Z,21.52
2019-01-30T16:21:06.863Z,15.20
2019-01-30T16:23:37.983Z,20.55
2019-01-30T16:26:07.876Z,21.95
2019-01-30T16:28:39.150Z,26.17
2019-01-30T16:31:10.820Z,10.03
2019-01-30T16:33:43.904Z,26.15
2019-01-30T16:36:15.152Z,15.88
2019-01-30T16:38:44.725Z,19.42
2019-01-30T16:41:16.083Z,13.68
2019-01-30T16:43:49.663Z,25.48
2019-01-30T16:46:20.950Z,23.25
2019-01-30T16:48:53.605Z,13.03
2019-01-30T16:51:23.685Z,17.50
2019-01-30T16:53:57.840Z,15.58
2019-01-30T16:56:28.912Z,18.62
2019-01-30T16:59:00.000Z,26.80
2019-01-30T17:01:31.315Z,16.67
2019-01-30T17:04:02.591Z,23.75
2019-01-30T17:06:33.851Z,22.25
2019-01-30T17:09:08.143Z,24.00
2019-01-30T17:11:38.942Z,31.93
2019-01-30T17:14:10.024Z,11.88
2019-01-30T17:16:41.269Z,24.75
2019-01-30T17:19:11.385Z,24.77
2019-01-30T17:21:41.514Z,15.63
2019-01-30T17:24:16.804Z,26.82
2019-01-30T17:26:47.760Z,21.57
2019-01-30T17:29:18.983Z,13.90
2019-01-30T17:31:50.849Z,9.28
2019-01-30T17:34:23.233Z,11.63
2019-01-30T17:36:53.399Z,16.27
2019-01-30T17:39:24.576Z,12.15
2019-01-30T17:41:57.135Z,18.55
2019-01-30T17:44:28.393Z,20.90
2019-01-30T17:47:01.078Z,14.93
2019-01-30T17:49:32.193Z,20.35
2019-01-30T17:52:04.681Z,25.27
2019-01-30T17:54:35.746Z,28.47
2019-01-30T17:57:06.922Z,23.95
2019-01-30T17:59:38.234Z,37.83
2019-01-30T18:02:11.030Z,24.30
2019-01-30T18:04:41.842Z,39.60
2019-01-30T18:07:13.606Z,40.10
2019-01-30T18:09:43.651Z,33.65
2019-01-30T18:12:15.511Z,20.82
2019-01-30T18:14:46.982Z,36.10
2019-01-30T18:17:27.040Z,38.83
2019-01-30T18:19:50.929Z,28.15
2019-01-30T18:22:21.267Z,43.48
2019-01-30T18:24:52.515Z,31.57
2019-01-30T18:27:22.671Z,22.98
2019-01-30T18:29:52.961Z,18.40
2019-01-30T18:32:26.842Z,26.87
2019-01-30T18:34:58.383Z,21.60
2019-01-30T18:37:28.519Z,18.50
2019-01-30T18:39:58.622Z,21.37
2019-01-30T18:42:28.552Z,31.42
2019-01-30T18:44:58.243Z,16.37
2019-01-30T18:47:29.994Z,26.17
2019-01-30T18:50:00.035Z,28.02
2019-01-30T18:52:31.830Z,37.35
2019-01-30T18:55:03.310Z,29.02
2019-01-30T18:57:34.589Z,45.83
2019-01-30T19:00:06.600Z,36.33
2019-01-30T19:02:36.770Z,31.85
2019-01-30T19:05:09.771Z,41.58
2019-01-30T19:07:41.014Z,21.27
2019-01-30T19:10:24.558Z,25.25
2019-01-30T19:12:57.401Z,28.90
2019-01-30T19:15:29.968Z,43.83
2019-01-30T19:18:00.254Z,16.95
2019-01-30T19:20:33.326Z,23.27
2019-01-30T19:23:06.919Z,30.60
2019-01-30T19:25:37.438Z,24.60
2019-01-30T19:28:09.101Z,33.67
2019-01-30T19:30:40.359Z,50.38
2019-01-30T19:33:11.079Z,44.93
2019-01-30T19:35:43.614Z,28.45
2019-01-30T19:38:14.808Z,50.58
2019-01-30T19:40:47.092Z,46.30
2019-01-30T19:43:18.367Z,47.50
2019-01-30T19:45:49.668Z,66.47
2019-01-30T19:48:23.201Z,40.30
2019-01-30T19:50:54.642Z,46.10
2019-01-30T19:53:26.129Z,55.15
2019-01-30T19:55:57.079Z,56.18
2019-01-30T19:58:30.602Z,61.77
2019-01-30T20:01:03.279Z,41.50
2019-01-30T20:03:34.528Z,69.70
2019-01-30T20:06:04.678Z,32.28
2019-01-30T20:08:37.437Z,43.98
2019-01-30T20:11:08.741Z,59.48
2019-01-30T20:13:42.093Z,68.87
2019-01-30T20:16:15.731Z,44.95
2019-01-30T20:18:46.562Z,24.50
2019-01-30T20:21:17.881Z,41.77
2019-01-30T20:23:51.846Z,44.90
2019-01-30T20:26:23.648Z,42.17
2019-01-30T20:28:53.808Z,49.73
2019-01-30T20:31:26.705Z,16.25
2019-01-30T20:33:58.098Z,55.08
2019-01-30T20:36:28.385Z,29.77
2019-01-30T20:38:58.498Z,29.52
2019-01-30T20:41:35.169Z,33.08
2019-01-30T20:44:07.813Z,49.98
2019-01-30T20:46:39.033Z,46.42
2019-01-30T20:49:10.426Z,40.83
2019-01-30T20:51:42.032Z,29.52
2019-01-30T20:54:13.383Z,60.30
2019-01-30T20:56:43.574Z,58.38
2019-01-30T20:59:14.788Z,69.03
2019-01-30T21:01:46.086Z,64.10
2019-01-30T21:04:17.952Z,71.97
2019-01-30T21:06:49.302Z,66.45
2019-01-30T21:09:21.302Z,48.80
2019-01-30T21:11:54.465Z,59.93
2019-01-30T21:14:24.827Z,50.33
2019-01-30T21:16:54.951Z,53.28
2019-01-30T21:19:26.313Z,49.00
2019-01-30T21:22:00.152Z,43.15
2019-01-30T21:24:31.544Z,53.08
2019-01-30T21:27:02.914Z,59.50
2019-01-30T21:29:34.265Z,57.30
2019-01-30T21:32:04.665Z,48.90
2019-01-30T21:34:36.142Z,88.87
2019-01-30T21:37:07.361Z,145.68
2019-01-30T21:39:37.387Z,88.78
2019-01-30T21:42:08.459Z,59.60
2019-01-30T21:44:39.503Z,46.98
2019-01-30T21:47:12.182Z,40.30
2019-01-30T21:49:45.686Z,41.55
2019-01-30T21:52:16.988Z,42.93
2019-01-30T21:54:47.023Z,45.40
2019-01-30T21:57:18.106Z,50.70
2019-01-30T21:59:49.182Z,46.68
2019-01-30T22:02:20.323Z,45.00
2019-01-30T22:04:55.221Z,51.85
2019-01-30T22:07:26.302Z,30.72
2019-01-30T22:09:57.943Z,41.80
2019-01-30T22:12:31.061Z,45.25
2019-01-30T22:15:02.125Z,45.55
2019-01-30T22:17:32.026Z,40.70
2019-01-30T22:20:03.048Z,48.63
2019-01-30T22:22:34.103Z,51.45
2019-01-30T22:25:05.182Z,47.70
2019-01-30T22:27:37.783Z,42.43
2019-01-30T22:30:13.890Z,42.53
2019-01-30T22:32:44.673Z,47.15
2019-01-30T22:35:16.445Z,52.00
2019-01-30T22:37:46.370Z,47.75
2019-01-30T22:40:22.354Z,35.55
2019-01-30T22:42:51.306Z,41.98
2019-01-30T22:45:23.464Z,36.55
2019-01-30T22:47:54.592Z,43.68
2019-01-30T22:50:27.108Z,45.23
2019-01-30T22:52:57.223Z,39.55
2019-01-30T22:55:28.271Z,50.45
2019-01-30T22:57:59.472Z,40.10
2019-01-30T23:01:04.023Z,42.53
2019-01-30T23:03:41.075Z,35.58
2019-01-30T23:06:42.263Z,34.95
2019-01-30T23:09:36.071Z,47.50
2019-01-30T23:12:28.290Z,29.32
2019-01-30T23:15:04.202Z,29.07
2019-01-30T23:17:57.326Z,25.62
2019-01-30T23:20:27.218Z,25.23
2019-01-30T23:23:13.127Z,29.80
2019-01-30T23:25:53.291Z,31.20
2019-01-30T23:29:02.949Z,29.15
2019-01-30T23:31:57.023Z,28.32
2019-01-30T23:34:37.021Z,29.82
2019-01-30T23:37:23.047Z,26.85
2019-01-30T23:40:09.060Z,30.35
2019-01-30T23:43:02.466Z,27.10
2019-01-30T23:45:35.498Z,28.00
2019-01-30T23:48:15.526Z,29.77
2019-01-30T23:50:55.690Z,29.00
2019-01-30T23:53:40.622Z,35.05
2019-01-30T23:56:17.886Z,33.75
2019-01-30T23:59:10.047Z,31.15
